createdAt,value
2022-08-26T00:01:35.969Z,5.22
2022-08-26T00:07:37.659Z,15.93
2022-08-26T00:13:40.229Z,12.00
2022-08-26T00:19:49.593Z,6.63
2022-08-26T00:25:54.540Z,8.77
2022-08-26T00:31:58.561Z,7.55
2022-08-26T00:38:01.794Z,11.82
2022-08-26T00:44:03.845Z,6.10
2022-08-26T00:50:10.871Z,11.30
2022-08-26T00:56:29.486Z,7.78
2022-08-26T01:02:31.388Z,8.68
2022-08-26T01:08:33.500Z,9.70
2022-08-26T01:14:36.766Z,10.43
2022-08-26T01:20:53.587Z,6.70
2022-08-26T01:27:07.068Z,8.00
2022-08-26T01:33:15.009Z,7.07
2022-08-26T01:39:18.108Z,9.43
2022-08-26T01:45:27.166Z,4.95
2022-08-26T01:51:30.320Z,5.90
2022-08-26T01:57:32.835Z,10.95
2022-08-26T02:03:38.719Z,8.50
2022-08-26T02:09:44.092Z,9.45
2022-08-26T02:15:46.819Z,8.82
2022-08-26T02:21:51.935Z,9.35
2022-08-26T02:27:54.709Z,9.43
2022-08-26T02:34:11.779Z,7.43
2022-08-26T02:40:16.160Z,12.63
2022-08-26T02:46:21.550Z,8.65
2022-08-26T02:52:29.800Z,16.80
2022-08-26T02:58:31.833Z,6.07
2022-08-26T03:04:33.938Z,8.60
2022-08-26T03:10:35.608Z,10.63
2022-08-26T03:16:38.147Z,9.55
2022-08-26T03:22:40.290Z,8.93
2022-08-26T03:29:02.157Z,6.15
2022-08-26T03:35:04.793Z,9.00
2022-08-26T03:41:09.139Z,12.32
2022-08-26T03:47:11.146Z,10.35
2022-08-26T03:53:13.421Z,8.65
2022-08-26T03:59:15.135Z,8.45
2022-08-26T04:05:19.632Z,10.05
2022-08-26T04:11:23.455Z,12.07
2022-08-26T04:17:26.305Z,10.68
2022-08-26T04:23:27.929Z,14.55
2022-08-26T04:29:30.091Z,21.00
2022-08-26T04:35:32.410Z,21.30
2022-08-26T04:41:34.235Z,28.23
2022-08-26T04:47:38.052Z,14.18
2022-08-26T04:53:39.793Z,18.50
2022-08-26T04:59:42.486Z,16.10
2022-08-26T05:05:46.401Z,21.27
2022-08-26T05:11:52.027Z,21.35
2022-08-26T05:17:54.074Z,19.70
2022-08-26T05:23:57.049Z,21.63
2022-08-26T05:29:58.822Z,26.98
2022-08-26T05:36:07.898Z,22.75
2022-08-26T05:42:11.252Z,31.55
2022-08-26T05:48:16.542Z,33.65
2022-08-26T05:54:21.758Z,51.33
2022-08-26T06:00:24.292Z,70.38
2022-08-26T06:06:32.918Z,61.58
2022-08-26T06:12:34.680Z,55.35
2022-08-26T06:18:39.659Z,43.38
2022-08-26T06:24:59.874Z,34.40
2022-08-26T06:31:03.231Z,37.58
2022-08-26T06:37:06.684Z,25.95
2022-08-26T06:43:09.574Z,29.83
2022-08-26T06:49:12.482Z,27.75
2022-08-26T06:55:14.322Z,22.13
2022-08-26T07:01:23.398Z,18.70
2022-08-26T07:07:25.108Z,30.67
2022-08-26T07:13:30.762Z,22.75
2022-08-26T07:19:32.700Z,20.10
2022-08-26T07:25:37.882Z,20.48
2022-08-26T07:31:42.368Z,24.25
2022-08-26T07:37:44.659Z,18.30
2022-08-26T07:43:46.352Z,16.45
2022-08-26T07:49:48.285Z,27.17
2022-08-26T07:55:54.490Z,22.33
2022-08-26T08:02:02.178Z,18.58
2022-08-26T08:08:26.278Z,16.38
2022-08-26T08:14:29.838Z,20.60
2022-08-26T08:20:33.301Z,20.25
2022-08-26T08:26:35.707Z,15.07
2022-08-26T08:32:43.814Z,12.70
2022-08-26T08:38:45.534Z,24.30
2022-08-26T08:44:52.082Z,19.38
2022-08-26T08:51:04.343Z,16.98
2022-08-26T08:57:17.485Z,16.17
2022-08-26T09:03:56.915Z,12.65
2022-08-26T09:10:22.853Z,20.67
2022-08-26T09:17:04.947Z,20.20
2022-08-26T09:23:06.934Z,28.60
2022-08-26T09:29:31.437Z,18.33
2022-08-26T09:35:36.095Z,15.57
2022-08-26T09:41:37.818Z,18.73
2022-08-26T09:47:54.400Z,23.58
2022-08-26T09:53:59.648Z,24.30
2022-08-26T10:00:02.308Z,19.67
2022-08-26T10:06:26.712Z,19.50
2022-08-26T10:12:34.260Z,21.30
2022-08-26T10:18:42.263Z,25.10
2022-08-26T10:24:53.219Z,19.27
2022-08-26T10:31:21.479Z,26.88
2022-08-26T10:37:43.491Z,18.95
2022-08-26T10:43:52.346Z,23.55
2022-08-26T10:49:59.989Z,27.70
2022-08-26T10:56:27.555Z,30.45
2022-08-26T11:02:48.301Z,28.88
2022-08-26T11:08:59.598Z,28.35
2022-08-26T11:15:24.649Z,18.70
2022-08-26T11:21:51.919Z,24.42
2022-08-26T11:28:00.886Z,21.40
2022-08-26T11:34:08.699Z,11.27
2022-08-26T11:40:20.761Z,18.48
2022-08-26T11:46:28.748Z,21.42
2022-08-26T11:52:30.490Z,18.15
2022-08-26T11:58:35.513Z,16.00
2022-08-26T12:04:41.671Z,24.85
2022-08-26T12:10:43.507Z,27.40
2022-08-26T12:16:45.806Z,21.90
2022-08-26T12:22:48.124Z,19.23
2022-08-26T12:29:02.395Z,19.95
2022-08-26T12:35:22.068Z,17.83
2022-08-26T12:41:53.763Z,17.48
2022-08-26T12:48:02.676Z,13.68
2022-08-26T12:54:06.898Z,14.20
2022-08-26T13:00:29.587Z,16.85
2022-08-26T13:06:31.647Z,13.88
2022-08-26T13:12:37.467Z,18.90
2022-08-26T13:18:39.515Z,13.77
2022-08-26T13:24:43.798Z,29.40
2022-08-26T13:30:48.259Z,27.75
2022-08-26T13:36:52.056Z,18.65
2022-08-26T13:42:53.753Z,20.02
2022-08-26T13:48:56.845Z,15.02
2022-08-26T13:55:00.468Z,22.20
2022-08-26T14:01:02.408Z,24.95
2022-08-26T14:07:04.543Z,16.83
2022-08-26T14:13:07.623Z,7.53
2022-08-26T14:19:09.631Z,15.93
2022-08-26T14:25:13.555Z,17.70
2022-08-26T14:31:15.479Z,23.40
2022-08-26T14:37:18.077Z,14.30
2022-08-26T14:43:19.819Z,18.75
2022-08-26T14:49:23.486Z,17.02
2022-08-26T14:55:26.268Z,13.80
2022-08-26T15:01:30.958Z,27.25
2022-08-26T15:07:33.139Z,17.02
2022-08-26T15:13:35.758Z,22.05
2022-08-26T15:19:38.776Z,28.98
2022-08-26T15:25:43.624Z,20.05
2022-08-26T15:31:45.847Z,18.15
2022-08-26T15:37:47.626Z,20.08
2022-08-26T15:43:49.820Z,20.30
2022-08-26T15:49:51.500Z,30.30
2022-08-26T15:55:55.307Z,18.25
2022-08-26T16:02:00.538Z,25.00
2022-08-26T16:08:03.629Z,21.23
2022-08-26T16:14:05.821Z,19.52
2022-08-26T16:20:08.419Z,20.95
2022-08-26T16:26:15.844Z,17.42
2022-08-26T16:32:17.707Z,21.95
2022-08-26T16:38:19.465Z,22.33
2022-08-26T16:44:22.297Z,23.17
2022-08-26T16:50:24.191Z,20.55
2022-08-26T16:56:33.449Z,14.23
2022-08-26T17:02:36.059Z,22.02
2022-08-26T17:08:39.466Z,31.88
2022-08-26T17:14:41.384Z,30.33
2022-08-26T17:20:45.116Z,38.78
2022-08-26T17:26:50.033Z,58.20
2022-08-26T17:32:55.326Z,35.30
2022-08-26T17:38:59.830Z,24.30
2022-08-26T17:45:01.569Z,23.65
2022-08-26T17:51:13.655Z,38.47
2022-08-26T17:57:15.470Z,29.15
2022-08-26T18:03:19.237Z,32.83
2022-08-26T18:09:21.245Z,43.45
2022-08-26T18:15:23.214Z,46.63
2022-08-26T18:21:27.311Z,44.08
2022-08-26T18:27:29.019Z,42.85
2022-08-26T18:33:31.157Z,44.60
2022-08-26T18:39:33.010Z,30.90
2022-08-26T18:45:34.795Z,30.50
2022-08-26T18:51:38.252Z,34.03
2022-08-26T18:57:40.141Z,33.83
2022-08-26T19:03:42.696Z,29.50
2022-08-26T19:09:44.408Z,38.00
2022-08-26T19:15:46.969Z,30.95
2022-08-26T19:21:48.834Z,30.02
2022-08-26T19:27:50.599Z,31.45
2022-08-26T19:33:52.740Z,25.58
2022-08-26T19:39:54.484Z,28.48
2022-08-26T19:45:56.404Z,24.75
2022-08-26T19:51:58.848Z,30.38
2022-08-26T19:58:00.733Z,40.78
2022-08-26T20:04:02.936Z,35.83
2022-08-26T20:10:07.058Z,41.05
2022-08-26T20:16:11.613Z,36.30
2022-08-26T20:22:13.923Z,33.40
2022-08-26T20:28:15.624Z,25.27
2022-08-26T20:34:18.870Z,28.60
2022-08-26T20:40:21.423Z,33.00
2022-08-26T20:46:25.419Z,27.02
2022-08-26T20:52:27.971Z,28.70
2022-08-26T20:58:30.059Z,30.33
2022-08-26T21:04:31.940Z,26.35
2022-08-26T21:10:33.748Z,27.45
2022-08-26T21:16:37.224Z,19.65
2022-08-26T21:22:39.083Z,25.25
2022-08-26T21:28:43.741Z,25.38
2022-08-26T21:34:45.460Z,22.38
2022-08-26T21:41:00.814Z,22.88
2022-08-26T21:47:03.510Z,22.83
2022-08-26T21:53:05.783Z,17.48
2022-08-26T21:59:08.387Z,26.25
2022-08-26T22:05:10.400Z,20.13
2022-08-26T22:11:12.280Z,18.58
2022-08-26T22:17:14.080Z,22.08
2022-08-26T22:23:15.782Z,18.25
2022-08-26T22:29:18.793Z,12.10
2022-08-26T22:35:28.887Z,18.17
2022-08-26T22:41:33.442Z,22.45
2022-08-26T22:47:35.911Z,18.42
2022-08-26T22:53:39.319Z,15.18
2022-08-26T22:59:44.111Z,14.68
2022-08-26T23:05:48.064Z,13.95
2022-08-26T23:11:55.002Z,16.52
2022-08-26T23:17:58.531Z,14.40
2022-08-26T23:24:01.157Z,9.70
2022-08-26T23:30:08.407Z,15.40
2022-08-26T23:36:13.593Z,12.43
2022-08-26T23:42:18.949Z,14.77
2022-08-26T23:48:21.735Z,13.88
2022-08-26T23:54:24.131Z,10.00
